sensor_id;sensor_type;location;lat;lon;timestamp;pressure;altitude;pressure_sealevel;temperature;humidity
71107;BME280;58763;47.982;11.516;2022-12-07T00:03:51;94054.69;;;1.97;88.47
71107;BME280;58763;47.982;11.516;2022-12-07T00:06:18;94054.94;;;1.95;88.35
71107;BME280;58763;47.982;11.516;2022-12-07T00:08:45;94056.84;;;2.12;87.97
71107;BME280;58763;47.982;11.516;2022-12-07T00:11:14;94043.06;;;2.15;87.42
71107;BME280;58763;47.982;11.516;2022-12-07T00:13:40;94046.97;;;2.24;86.90
71107;BME280;58763;47.982;11.516;2022-12-07T00:16:08;94054.00;;;2.30;86.66
71107;BME280;58763;47.982;11.516;2022-12-07T00:18:34;94043.59;;;2.28;86.41
71107;BME280;58763;47.982;11.516;2022-12-07T00:21:16;94044.25;;;2.35;85.79
71107;BME280;58763;47.982;11.516;2022-12-07T00:23:43;94049.72;;;2.29;86.62
71107;BME280;58763;47.982;11.516;2022-12-07T00:28:46;94043.44;;;2.35;85.88
71107;BME280;58763;47.982;11.516;2022-12-07T00:31:12;94040.50;;;2.36;85.84
71107;BME280;58763;47.982;11.516;2022-12-07T00:33:39;94043.03;;;2.43;85.29
71107;BME280;58763;47.982;11.516;2022-12-07T00:36:08;94042.72;;;2.11;85.94
71107;BME280;58763;47.982;11.516;2022-12-07T00:38:36;94044.84;;;1.97;86.98
71107;BME280;58763;47.982;11.516;2022-12-07T00:41:09;94040.91;;;2.00;86.81
71107;BME280;58763;47.982;11.516;2022-12-07T00:43:35;94032.66;;;2.01;86.89
71107;BME280;58763;47.982;11.516;2022-12-07T00:46:01;94033.72;;;2.00;87.06
71107;BME280;58763;47.982;11.516;2022-12-07T00:48:26;94037.31;;;1.94;87.18
71107;BME280;58763;47.982;11.516;2022-12-07T00:50:52;94035.41;;;2.06;86.82
71107;BME280;58763;47.982;11.516;2022-12-07T00:53:18;94034.84;;;2.04;86.62
71107;BME280;58763;47.982;11.516;2022-12-07T00:55:44;94032.06;;;1.99;86.77
71107;BME280;58763;47.982;11.516;2022-12-07T00:58:10;94032.19;;;2.04;86.27
71107;BME280;58763;47.982;11.516;2022-12-07T01:00:38;94034.84;;;2.04;86.48
71107;BME280;58763;47.982;11.516;2022-12-07T01:03:05;94036.84;;;1.97;86.80
71107;BME280;58763;47.982;11.516;2022-12-07T01:05:31;94037.22;;;2.18;86.40
71107;BME280;58763;47.982;11.516;2022-12-07T01:07:57;94038.84;;;2.19;86.21
71107;BME280;58763;47.982;11.516;2022-12-07T01:10:22;94038.41;;;2.22;85.62
71107;BME280;58763;47.982;11.516;2022-12-07T01:12:48;94036.63;;;2.27;85.79
71107;BME280;58763;47.982;11.516;2022-12-07T01:15:14;94037.44;;;2.28;85.37
71107;BME280;58763;47.982;11.516;2022-12-07T01:17:40;94032.28;;;2.38;85.16
71107;BME280;58763;47.982;11.516;2022-12-07T01:20:06;94037.44;;;2.28;85.71
71107;BME280;58763;47.982;11.516;2022-12-07T01:22:39;94033.91;;;2.39;85.48
71107;BME280;58763;47.982;11.516;2022-12-07T01:25:06;94032.25;;;2.21;85.82
71107;BME280;58763;47.982;11.516;2022-12-07T01:27:34;94031.28;;;2.27;85.83
71107;BME280;58763;47.982;11.516;2022-12-07T01:30:00;94026.34;;;2.19;85.08
71107;BME280;58763;47.982;11.516;2022-12-07T01:32:26;94026.66;;;2.23;85.55
71107;BME280;58763;47.982;11.516;2022-12-07T01:34:52;94029.69;;;2.26;85.75
71107;BME280;58763;47.982;11.516;2022-12-07T01:37:18;94030.09;;;2.35;84.90
71107;BME280;58763;47.982;11.516;2022-12-07T01:39:43;94028.56;;;2.39;85.22
71107;BME280;58763;47.982;11.516;2022-12-07T01:42:10;94024.00;;;2.23;85.36
71107;BME280;58763;47.982;11.516;2022-12-07T01:47:39;94037.63;;;2.38;85.04
71107;BME280;58763;47.982;11.516;2022-12-07T01:50:05;94034.97;;;2.38;84.85
71107;BME280;58763;47.982;11.516;2022-12-07T01:52:33;94031.47;;;2.37;85.32
71107;BME280;58763;47.982;11.516;2022-12-07T01:55:02;94033.78;;;2.34;85.42
71107;BME280;58763;47.982;11.516;2022-12-07T01:57:30;94024.84;;;2.40;85.37
71107;BME280;58763;47.982;11.516;2022-12-07T01:59:58;94023.59;;;2.59;84.08
71107;BME280;58763;47.982;11.516;2022-12-07T02:02:32;94027.69;;;2.50;84.50
71107;BME280;58763;47.982;11.516;2022-12-07T02:05:01;94021.78;;;2.48;84.59
71107;BME280;58763;47.982;11.516;2022-12-07T02:07:27;94026.00;;;2.44;84.71
71107;BME280;58763;47.982;11.516;2022-12-07T02:09:54;94029.78;;;2.48;84.64
71107;BME280;58763;47.982;11.516;2022-12-07T02:12:20;94031.31;;;2.44;84.37
71107;BME280;58763;47.982;11.516;2022-12-07T02:14:47;94035.13;;;2.48;84.47
71107;BME280;58763;47.982;11.516;2022-12-07T02:20:03;94021.00;;;2.47;84.21
71107;BME280;58763;47.982;11.516;2022-12-07T02:22:42;94023.94;;;2.34;84.71
71107;BME280;58763;47.982;11.516;2022-12-07T02:27:50;94018.19;;;2.54;84.48
71107;BME280;58763;47.982;11.516;2022-12-07T02:30:20;94022.94;;;2.52;84.36
71107;BME280;58763;47.982;11.516;2022-12-07T02:32:59;94021.72;;;2.59;83.79
71107;BME280;58763;47.982;11.516;2022-12-07T02:43:53;94008.44;;;2.48;83.60
71107;BME280;58763;47.982;11.516;2022-12-07T02:46:25;94005.56;;;2.49;84.05
71107;BME280;58763;47.982;11.516;2022-12-07T02:48:54;94012.50;;;2.50;84.26
71107;BME280;58763;47.982;11.516;2022-12-07T02:51:21;94003.34;;;2.46;84.31
71107;BME280;58763;47.982;11.516;2022-12-07T02:53:47;94009.16;;;2.43;84.41
71107;BME280;58763;47.982;11.516;2022-12-07T02:59:17;94007.97;;;2.51;84.31
71107;BME280;58763;47.982;11.516;2022-12-07T03:02:25;93999.50;;;2.54;83.58
71107;BME280;58763;47.982;11.516;2022-12-07T03:08:02;94004.25;;;2.52;83.68
71107;BME280;58763;47.982;11.516;2022-12-07T03:16:18;94007.31;;;2.44;84.21
71107;BME280;58763;47.982;11.516;2022-12-07T03:18:55;93997.97;;;2.30;84.69
71107;BME280;58763;47.982;11.516;2022-12-07T03:21:25;93996.69;;;2.32;84.88
71107;BME280;58763;47.982;11.516;2022-12-07T03:23:56;94004.63;;;2.44;84.63
71107;BME280;58763;47.982;11.516;2022-12-07T03:26:30;94007.06;;;2.45;84.67
71107;BME280;58763;47.982;11.516;2022-12-07T03:29:00;94001.16;;;2.43;84.62
71107;BME280;58763;47.982;11.516;2022-12-07T03:31:41;93985.50;;;2.47;84.60
71107;BME280;58763;47.982;11.516;2022-12-07T03:34:16;93985.59;;;2.52;83.97
71107;BME280;58763;47.982;11.516;2022-12-07T03:37:05;93988.91;;;2.59;83.85
71107;BME280;58763;47.982;11.516;2022-12-07T03:42:35;93991.31;;;2.60;83.56
71107;BME280;58763;47.982;11.516;2022-12-07T03:45:03;93986.16;;;2.54;84.21
71107;BME280;58763;47.982;11.516;2022-12-07T03:47:49;93984.75;;;2.51;84.26
71107;BME280;58763;47.982;11.516;2022-12-07T03:50:27;93984.59;;;2.58;83.93
71107;BME280;58763;47.982;11.516;2022-12-07T03:55:41;93975.22;;;2.55;84.02
71107;BME280;58763;47.982;11.516;2022-12-07T03:58:16;93981.63;;;2.54;84.24
71107;BME280;58763;47.982;11.516;2022-12-07T04:00:44;93982.75;;;2.58;83.95
71107;BME280;58763;47.982;11.516;2022-12-07T04:03:11;93989.22;;;2.62;83.78
71107;BME280;58763;47.982;11.516;2022-12-07T04:05:37;93981.22;;;2.62;83.75
71107;BME280;58763;47.982;11.516;2022-12-07T04:08:03;93990.84;;;2.63;83.91
71107;BME280;58763;47.982;11.516;2022-12-07T04:10:29;93991.63;;;2.64;83.57
71107;BME280;58763;47.982;11.516;2022-12-07T04:12:55;93988.81;;;2.54;84.09
71107;BME280;58763;47.982;11.516;2022-12-07T04:15:20;93975.84;;;2.46;84.43
71107;BME280;58763;47.982;11.516;2022-12-07T04:17:46;93973.28;;;2.51;84.67
71107;BME280;58763;47.982;11.516;2022-12-07T04:20:12;93981.38;;;2.56;84.55
71107;BME280;58763;47.982;11.516;2022-12-07T04:22:38;93982.75;;;2.58;84.23
71107;BME280;58763;47.982;11.516;2022-12-07T04:25:04;93976.28;;;2.54;84.26
71107;BME280;58763;47.982;11.516;2022-12-07T04:27:30;93980.56;;;2.55;84.46
71107;BME280;58763;47.982;11.516;2022-12-07T04:29:55;93981.47;;;2.61;84.02
71107;BME280;58763;47.982;11.516;2022-12-07T04:32:22;93979.28;;;2.58;84.17
71107;BME280;58763;47.982;11.516;2022-12-07T04:34:48;93985.59;;;2.52;84.27
71107;BME280;58763;47.982;11.516;2022-12-07T04:37:14;93985.59;;;2.52;84.63
71107;BME280;58763;47.982;11.516;2022-12-07T04:39:39;93982.91;;;2.52;84.67
71107;BME280;58763;47.982;11.516;2022-12-07T04:42:05;93982.19;;;2.56;84.54
71107;BME280;58763;47.982;11.516;2022-12-07T04:44:30;93982.50;;;2.60;84.21
71107;BME280;58763;47.982;11.516;2022-12-07T04:46:56;93980.91;;;2.59;84.20
71107;BME280;58763;47.982;11.516;2022-12-07T04:49:24;93982.97;;;2.57;84.35
71107;BME280;58763;47.982;11.516;2022-12-07T04:51:50;93982.03;;;2.63;84.40
71107;BME280;58763;47.982;11.516;2022-12-07T04:54:16;93987.69;;;2.66;83.82
71107;BME280;58763;47.982;11.516;2022-12-07T04:56:43;93982.03;;;2.63;83.73
71107;BME280;58763;47.982;11.516;2022-12-07T04:59:10;93978.44;;;2.57;84.02
71107;BME280;58763;47.982;11.516;2022-12-07T05:01:36;93978.63;;;2.67;83.50
71107;BME280;58763;47.982;11.516;2022-12-07T05:04:01;93987.38;;;2.63;83.11
71107;BME280;58763;47.982;11.516;2022-12-07T05:06:27;93983.56;;;2.59;82.84
71107;BME280;58763;47.982;11.516;2022-12-07T05:08:53;93980.63;;;2.44;83.38
71107;BME280;58763;47.982;11.516;2022-12-07T05:11:18;93986.31;;;2.47;83.28
71107;BME280;58763;47.982;11.516;2022-12-07T05:14:15;93987.31;;;2.30;83.01
71107;BME280;58763;47.982;11.516;2022-12-07T05:16:41;93996.03;;;2.25;83.52
71107;BME280;58763;47.982;11.516;2022-12-07T05:19:08;93994.34;;;2.19;83.75
71107;BME280;58763;47.982;11.516;2022-12-07T05:21:34;93997.78;;;2.20;83.31
71107;BME280;58763;47.982;11.516;2022-12-07T05:24:00;93990.53;;;2.03;83.48
71107;BME280;58763;47.982;11.516;2022-12-07T05:26:26;93999.94;;;2.06;83.98
71107;BME280;58763;47.982;11.516;2022-12-07T05:28:53;93997.41;;;1.99;83.89
71107;BME280;58763;47.982;11.516;2022-12-07T05:31:19;93992.44;;;2.03;83.99
71107;BME280;58763;47.982;11.516;2022-12-07T05:33:44;93997.56;;;1.93;84.33
71107;BME280;58763;47.982;11.516;2022-12-07T05:36:10;93991.00;;;1.72;85.01
71107;BME280;58763;47.982;11.516;2022-12-07T05:38:35;94004.34;;;1.72;85.33
71107;BME280;58763;47.982;11.516;2022-12-07T05:41:03;93993.78;;;1.77;84.94
71107;BME280;58763;47.982;11.516;2022-12-07T05:43:29;93992.38;;;1.86;85.11
71107;BME280;58763;47.982;11.516;2022-12-07T05:45:55;93992.38;;;1.86;84.63
71107;BME280;58763;47.982;11.516;2022-12-07T05:48:21;93994.81;;;1.76;85.30
71107;BME280;58763;47.982;11.516;2022-12-07T05:50:48;93991.34;;;1.76;85.47
71107;BME280;58763;47.982;11.516;2022-12-07T05:53:13;93991.31;;;1.87;85.00
71107;BME280;58763;47.982;11.516;2022-12-07T05:55:39;93995.69;;;1.93;84.75
71107;BME280;58763;47.982;11.516;2022-12-07T05:58:05;93998.69;;;1.97;84.59
71107;BME280;58763;47.982;11.516;2022-12-07T06:00:49;94003.28;;;1.73;85.04
71107;BME280;58763;47.982;11.516;2022-12-07T06:03:14;94003.16;;;1.68;85.03
71107;BME280;58763;47.982;11.516;2022-12-07T06:05:40;93996.81;;;1.69;85.37
71107;BME280;58763;47.982;11.516;2022-12-07T06:08:05;94002.72;;;1.71;85.31
71107;BME280;58763;47.982;11.516;2022-12-07T06:10:31;94000.09;;;1.48;85.35
71107;BME280;58763;47.982;11.516;2022-12-07T06:12:56;94011.09;;;1.63;84.95
71107;BME280;58763;47.982;11.516;2022-12-07T06:15:22;94007.47;;;1.69;85.21
71107;BME280;58763;47.982;11.516;2022-12-07T06:17:48;94008.41;;;1.63;84.61
71107;BME280;58763;47.982;11.516;2022-12-07T06:20:17;94008.44;;;1.52;86.41
71107;BME280;58763;47.982;11.516;2022-12-07T06:22:43;94007.06;;;1.49;86.01
71107;BME280;58763;47.982;11.516;2022-12-07T06:25:09;94004.47;;;1.54;85.71
71107;BME280;58763;47.982;11.516;2022-12-07T06:27:35;94011.44;;;1.55;85.80
71107;BME280;58763;47.982;11.516;2022-12-07T06:30:00;94021.28;;;1.43;85.81
71107;BME280;58763;47.982;11.516;2022-12-07T06:32:32;94014.34;;;1.54;85.78
71107;BME280;58763;47.982;11.516;2022-12-07T06:34:58;94014.69;;;1.46;85.63
71107;BME280;58763;47.982;11.516;2022-12-07T06:37:24;94014.69;;;1.34;85.97
71107;BME280;58763;47.982;11.516;2022-12-07T06:39:50;94011.59;;;1.37;86.20
71107;BME280;58763;47.982;11.516;2022-12-07T06:42:16;94011.69;;;1.42;86.55
71107;BME280;58763;47.982;11.516;2022-12-07T06:44:43;94014.56;;;1.52;85.80
71107;BME280;58763;47.982;11.516;2022-12-07T06:47:08;94011.31;;;1.50;86.05
71107;BME280;58763;47.982;11.516;2022-12-07T06:49:34;94014.78;;;1.62;85.49
71107;BME280;58763;47.982;11.516;2022-12-07T06:52:00;94023.25;;;1.59;85.40
71107;BME280;58763;47.982;11.516;2022-12-07T06:54:25;94024.75;;;1.67;85.23
71107;BME280;58763;47.982;11.516;2022-12-07T06:56:51;94031.72;;;1.56;85.54
71107;BME280;58763;47.982;11.516;2022-12-07T06:59:16;94027.78;;;1.59;85.72
71107;BME280;58763;47.982;11.516;2022-12-07T07:01:42;94038.66;;;1.57;85.74
71107;BME280;58763;47.982;11.516;2022-12-07T07:04:07;94034.38;;;1.56;85.50
71107;BME280;58763;47.982;11.516;2022-12-07T07:06:33;94041.19;;;1.64;85.20
71107;BME280;58763;47.982;11.516;2022-12-07T07:08:59;94036.81;;;1.58;84.83
71107;BME280;58763;47.982;11.516;2022-12-07T07:11:24;94045.25;;;1.66;84.74
71107;BME280;58763;47.982;11.516;2022-12-07T07:13:50;94042.56;;;1.78;84.66
71107;BME280;58763;47.982;11.516;2022-12-07T07:16:15;94050.56;;;1.66;84.93
71107;BME280;58763;47.982;11.516;2022-12-07T07:18:41;94050.56;;;1.66;85.04
71107;BME280;58763;47.982;11.516;2022-12-07T07:21:06;94051.16;;;1.68;84.96
71107;BME280;58763;47.982;11.516;2022-12-07T07:23:32;94049.66;;;1.72;84.96
71107;BME280;58763;47.982;11.516;2022-12-07T07:25:58;94052.66;;;1.64;85.15
71107;BME280;58763;47.982;11.516;2022-12-07T07:28:23;94047.91;;;1.66;85.29
71107;BME280;58763;47.982;11.516;2022-12-07T07:30:49;94054.72;;;1.85;86.41
71107;BME280;58763;47.982;11.516;2022-12-07T07:33:14;94048.34;;;1.86;86.00
71107;BME280;58763;47.982;11.516;2022-12-07T07:35:40;94051.56;;;2.00;85.81
71107;BME280;58763;47.982;11.516;2022-12-07T07:38:06;94052.84;;;1.97;84.45
71107;BME280;58763;47.982;11.516;2022-12-07T07:40:32;94054.44;;;1.98;84.41
71107;BME280;58763;47.982;11.516;2022-12-07T07:42:58;94054.34;;;2.05;83.87
71107;BME280;58763;47.982;11.516;2022-12-07T07:45:26;94052.13;;;2.02;83.00
71107;BME280;58763;47.982;11.516;2022-12-07T07:47:51;94060.13;;;2.02;83.43
71107;BME280;58763;47.982;11.516;2022-12-07T07:50:17;94055.25;;;1.99;83.60
71107;BME280;58763;47.982;11.516;2022-12-07T07:52:43;94056.88;;;2.00;83.45
71107;BME280;58763;47.982;11.516;2022-12-07T07:55:10;94063.28;;;1.87;83.93
71107;BME280;58763;47.982;11.516;2022-12-07T07:57:36;94065.38;;;1.85;84.25
71107;BME280;58763;47.982;11.516;2022-12-07T08:00:07;94060.28;;;1.84;84.51
71107;BME280;58763;47.982;11.516;2022-12-07T08:02:33;94057.50;;;1.90;84.01
71107;BME280;58763;47.982;11.516;2022-12-07T08:04:59;94061.69;;;1.86;84.02
71107;BME280;58763;47.982;11.516;2022-12-07T08:07:24;94065.06;;;1.70;84.94
71107;BME280;58763;47.982;11.516;2022-12-07T08:09:50;94065.28;;;1.69;85.15
71107;BME280;58763;47.982;11.516;2022-12-07T08:12:16;94063.44;;;1.58;85.75
71107;BME280;58763;47.982;11.516;2022-12-07T08:14:41;94067.97;;;1.46;86.22
71107;BME280;58763;47.982;11.516;2022-12-07T08:17:07;94060.78;;;1.46;86.50
71107;BME280;58763;47.982;11.516;2022-12-07T08:19:33;94072.59;;;1.50;86.33
71107;BME280;58763;47.982;11.516;2022-12-07T08:21:58;94064.50;;;1.45;86.46
71107;BME280;58763;47.982;11.516;2022-12-07T08:24:24;94063.72;;;1.45;86.89
71107;BME280;58763;47.982;11.516;2022-12-07T08:26:50;94066.25;;;1.51;87.01
71107;BME280;58763;47.982;11.516;2022-12-07T08:29:17;94069.81;;;1.45;87.29
71107;BME280;58763;47.982;11.516;2022-12-07T08:31:42;94071.47;;;1.46;87.12
71107;BME280;58763;47.982;11.516;2022-12-07T08:34:10;94069.13;;;1.38;87.13
71107;BME280;58763;47.982;11.516;2022-12-07T08:36:36;94069.13;;;1.26;87.63
71107;BME280;58763;47.982;11.516;2022-12-07T08:39:02;94070.75;;;1.27;87.67
71107;BME280;58763;47.982;11.516;2022-12-07T08:41:27;94073.88;;;1.36;87.81
71107;BME280;58763;47.982;11.516;2022-12-07T08:43:53;94076.09;;;1.39;87.37
71107;BME280;58763;47.982;11.516;2022-12-07T08:46:22;94067.41;;;1.44;87.15
71107;BME280;58763;47.982;11.516;2022-12-07T08:48:58;94074.56;;;1.55;86.85
71107;BME280;58763;47.982;11.516;2022-12-07T08:51:27;94081.16;;;1.52;87.22
71107;BME280;58763;47.982;11.516;2022-12-07T08:53:53;94081.41;;;1.39;87.68
71107;BME280;58763;47.982;11.516;2022-12-07T08:56:20;94091.81;;;1.29;87.99
71107;BME280;58763;47.982;11.516;2022-12-07T08:58:46;94086.03;;;1.32;88.29
71107;BME280;58763;47.982;11.516;2022-12-07T09:01:12;94081.66;;;1.26;88.62
71107;BME280;58763;47.982;11.516;2022-12-07T09:03:38;94083.13;;;1.22;89.13
71107;BME280;58763;47.982;11.516;2022-12-07T09:06:04;94083.97;;;1.22;89.61
71107;BME280;58763;47.982;11.516;2022-12-07T09:08:34;94078.38;;;1.24;89.64
71107;BME280;58763;47.982;11.516;2022-12-07T09:11:00;94072.03;;;1.25;89.61
71107;BME280;58763;47.982;11.516;2022-12-07T09:13:25;94076.41;;;1.19;89.43
71107;BME280;58763;47.982;11.516;2022-12-07T09:15:51;94073.19;;;1.17;89.84
71107;BME280;58763;47.982;11.516;2022-12-07T09:18:17;94079.31;;;1.18;90.46
71107;BME280;58763;47.982;11.516;2022-12-07T09:20:42;94071.91;;;1.20;90.31
71107;BME280;58763;47.982;11.516;2022-12-07T09:23:08;94072.97;;;1.07;90.41
71107;BME280;58763;47.982;11.516;2022-12-07T09:25:34;94067.63;;;1.07;91.06
71107;BME280;58763;47.982;11.516;2022-12-07T09:27:59;94068.41;;;1.08;90.72
71107;BME280;58763;47.982;11.516;2022-12-07T09:30:26;94066.13;;;1.11;91.32
71107;BME280;58763;47.982;11.516;2022-12-07T09:32:58;94064.28;;;1.12;91.17
71107;BME280;58763;47.982;11.516;2022-12-07T09:35:24;94061.94;;;1.04;91.51
71107;BME280;58763;47.982;11.516;2022-12-07T09:37:50;94054.41;;;1.01;91.82
71107;BME280;58763;47.982;11.516;2022-12-07T09:40:18;94058.25;;;1.05;92.03
71107;BME280;58763;47.982;11.516;2022-12-07T09:42:49;94058.59;;;1.08;92.27
71107;BME280;58763;47.982;11.516;2022-12-07T09:45:30;94048.38;;;0.94;92.78
71107;BME280;58763;47.982;11.516;2022-12-07T09:47:58;94045.25;;;0.97;92.73
71107;BME280;58763;47.982;11.516;2022-12-07T09:50:27;94054.66;;;0.99;93.02
71107;BME280;58763;47.982;11.516;2022-12-07T09:53:09;94053.84;;;0.99;92.89
71107;BME280;58763;47.982;11.516;2022-12-07T09:55:38;94050.03;;;1.06;93.38
71107;BME280;58763;47.982;11.516;2022-12-07T09:58:04;94038.56;;;1.06;92.58
71107;BME280;58763;47.982;11.516;2022-12-07T10:00:30;94041.66;;;1.03;92.49
71107;BME280;58763;47.982;11.516;2022-12-07T10:03:01;94036.34;;;1.03;92.39
71107;BME280;58763;47.982;11.516;2022-12-07T10:05:34;94032.66;;;1.04;92.54
71107;BME280;58763;47.982;11.516;2022-12-07T10:08:02;94019.34;;;1.04;92.21
71107;BME280;58763;47.982;11.516;2022-12-07T10:10:33;94024.22;;;1.07;92.24
71107;BME280;58763;47.982;11.516;2022-12-07T10:13:05;94016.94;;;1.14;92.42
71107;BME280;58763;47.982;11.516;2022-12-07T10:15:56;94011.34;;;1.15;91.75
71107;BME280;58763;47.982;11.516;2022-12-07T10:18:39;94021.19;;;1.15;91.61
71107;BME280;58763;47.982;11.516;2022-12-07T10:21:14;94017.03;;;1.19;92.07
71107;BME280;58763;47.982;11.516;2022-12-07T10:26:38;94020.50;;;1.31;91.95
71107;BME280;58763;47.982;11.516;2022-12-07T10:29:16;94021.88;;;1.45;92.20
71107;BME280;58763;47.982;11.516;2022-12-07T10:31:45;94026.97;;;1.47;91.33
71107;BME280;58763;47.982;11.516;2022-12-07T10:34:24;94023.81;;;1.50;91.05
71107;BME280;58763;47.982;11.516;2022-12-07T10:36:51;94027.66;;;1.54;90.74
71107;BME280;58763;47.982;11.516;2022-12-07T10:39:22;94025.47;;;1.51;91.21
71107;BME280;58763;47.982;11.516;2022-12-07T10:41:59;94015.03;;;1.61;90.90
71107;BME280;58763;47.982;11.516;2022-12-07T10:44:33;94020.69;;;1.64;90.12
71107;BME280;58763;47.982;11.516;2022-12-07T11:06:51;94016.75;;;2.06;88.05
71107;BME280;58763;47.982;11.516;2022-12-07T11:15:00;93999.06;;;2.17;86.93
71107;BME280;58763;47.982;11.516;2022-12-07T11:17:35;93999.56;;;2.14;86.79
71107;BME280;58763;47.982;11.516;2022-12-07T11:20:24;93998.06;;;2.06;86.08
71107;BME280;58763;47.982;11.516;2022-12-07T11:23:04;93996.13;;;2.02;87.08
71107;BME280;58763;47.982;11.516;2022-12-07T11:25:49;93981.66;;;1.98;86.71
71107;BME280;58763;47.982;11.516;2022-12-07T11:31:15;93984.44;;;1.91;87.47
71107;BME280;58763;47.982;11.516;2022-12-07T11:33:59;93985.47;;;2.02;87.23
71107;BME280;58763;47.982;11.516;2022-12-07T11:36:38;93972.38;;;2.00;87.04
71107;BME280;58763;47.982;11.516;2022-12-07T11:41:47;93977.00;;;2.05;87.37
71107;BME280;58763;47.982;11.516;2022-12-07T11:46:51;93967.63;;;2.02;86.38
71107;BME280;58763;47.982;11.516;2022-12-07T11:49:47;93968.19;;;2.04;86.36
71107;BME280;58763;47.982;11.516;2022-12-07T11:52:24;93961.31;;;2.08;86.72
71107;BME280;58763;47.982;11.516;2022-12-07T11:54:53;93962.38;;;2.07;86.80
71107;BME280;58763;47.982;11.516;2022-12-07T11:57:37;93967.06;;;2.17;86.12
71107;BME280;58763;47.982;11.516;2022-12-07T12:00:06;93960.94;;;2.17;85.72
71107;BME280;58763;47.982;11.516;2022-12-07T12:05:26;93952.16;;;2.33;84.25
71107;BME280;58763;47.982;11.516;2022-12-07T12:08:05;93951.97;;;2.23;84.53
71107;BME280;58763;47.982;11.516;2022-12-07T12:11:00;93952.69;;;2.18;84.86
71107;BME280;58763;47.982;11.516;2022-12-07T12:16:13;93945.91;;;2.27;85.39
71107;BME280;58763;47.982;11.516;2022-12-07T12:21:17;93938.31;;;2.36;85.28
71107;BME280;58763;47.982;11.516;2022-12-07T12:29:03;93933.22;;;2.34;84.67
71107;BME280;58763;47.982;11.516;2022-12-07T12:31:39;93939.13;;;2.36;84.91
71107;BME280;58763;47.982;11.516;2022-12-07T12:34:32;93933.38;;;2.28;84.27
71107;BME280;58763;47.982;11.516;2022-12-07T12:36:58;93927.63;;;2.36;84.69
71107;BME280;58763;47.982;11.516;2022-12-07T12:39:24;93935.16;;;2.39;84.53
71107;BME280;58763;47.982;11.516;2022-12-07T12:41:52;93928.53;;;2.41;84.39
71107;BME280;58763;47.982;11.516;2022-12-07T12:51:49;93927.81;;;2.29;85.18
71107;BME280;58763;47.982;11.516;2022-12-07T12:54:20;93927.63;;;2.36;85.14
71107;BME280;58763;47.982;11.516;2022-12-07T12:57:09;93928.72;;;2.35;85.23
71107;BME280;58763;47.982;11.516;2022-12-07T12:59:56;93920.94;;;2.50;84.99
71107;BME280;58763;47.982;11.516;2022-12-07T13:02:25;93915.69;;;2.55;84.32
71107;BME280;58763;47.982;11.516;2022-12-07T13:04:53;93912.06;;;2.61;84.13
71107;BME280;58763;47.982;11.516;2022-12-07T13:20:47;93910.06;;;3.06;82.36
71107;BME280;58763;47.982;11.516;2022-12-07T13:23:18;93907.38;;;3.06;82.73
71107;BME280;58763;47.982;11.516;2022-12-07T13:28:48;93906.41;;;3.12;82.80
71107;BME280;58763;47.982;11.516;2022-12-07T13:31:33;93903.66;;;3.07;82.71
71107;BME280;58763;47.982;11.516;2022-12-07T13:33:59;93904.88;;;3.16;82.41
71107;BME280;58763;47.982;11.516;2022-12-07T13:36:37;93906.50;;;3.17;82.43
71107;BME280;58763;47.982;11.516;2022-12-07T13:41:44;93909.28;;;3.27;81.84
71107;BME280;58763;47.982;11.516;2022-12-07T13:44:15;93908.66;;;3.20;81.67
71107;BME280;58763;47.982;11.516;2022-12-07T13:47:05;93914.06;;;3.25;81.32
71107;BME280;58763;47.982;11.516;2022-12-07T13:49:38;93912.03;;;3.32;80.43
71107;BME280;58763;47.982;11.516;2022-12-07T13:55:29;93903.75;;;3.34;79.67
71107;BME280;58763;47.982;11.516;2022-12-07T13:57:30;93900.50;;;3.32;79.44
71107;BME280;58763;47.982;11.516;2022-12-07T13:59:57;93901.81;;;3.29;79.75
71107;BME280;58763;47.982;11.516;2022-12-07T14:02:31;93902.56;;;3.25;80.19
71107;BME280;58763;47.982;11.516;2022-12-07T14:07:49;93894.59;;;3.08;80.85
71107;BME280;58763;47.982;11.516;2022-12-07T14:10:39;93899.88;;;3.03;81.06
71107;BME280;58763;47.982;11.516;2022-12-07T14:13:34;93897.59;;;3.12;80.48
71107;BME280;58763;47.982;11.516;2022-12-07T14:16:02;93894.09;;;3.11;80.36
71107;BME280;58763;47.982;11.516;2022-12-07T14:18:42;93892.50;;;3.10;80.83
71107;BME280;58763;47.982;11.516;2022-12-07T14:23:38;93890.47;;;3.17;80.36
71107;BME280;58763;47.982;11.516;2022-12-07T14:26:08;93897.88;;;3.15;80.70
71107;BME280;58763;47.982;11.516;2022-12-07T14:28:37;93887.78;;;3.17;80.72
71107;BME280;58763;47.982;11.516;2022-12-07T14:31:07;93885.41;;;3.21;80.15
71107;BME280;58763;47.982;11.516;2022-12-07T14:33:35;93889.88;;;3.15;80.16
71107;BME280;58763;47.982;11.516;2022-12-07T14:36:00;93886.56;;;3.08;80.58
71107;BME280;58763;47.982;11.516;2022-12-07T14:38:26;93889.50;;;3.07;80.66
71107;BME280;58763;47.982;11.516;2022-12-07T14:40:53;93888.94;;;3.05;80.63
71107;BME280;58763;47.982;11.516;2022-12-07T14:43:19;93886.75;;;3.02;80.48
71107;BME280;58763;47.982;11.516;2022-12-07T14:45:45;93880.03;;;2.99;80.79
71107;BME280;58763;47.982;11.516;2022-12-07T14:48:12;93885.91;;;2.96;80.40
71107;BME280;58763;47.982;11.516;2022-12-07T14:50:41;93883.97;;;2.92;80.51
71107;BME280;58763;47.982;11.516;2022-12-07T14:53:18;93882.06;;;2.92;80.34
71107;BME280;58763;47.982;11.516;2022-12-07T14:55:47;93880.06;;;2.83;80.70
71107;BME280;58763;47.982;11.516;2022-12-07T14:58:17;93884.38;;;2.84;80.26
71107;BME280;58763;47.982;11.516;2022-12-07T15:00:43;93884.28;;;2.78;80.62
71107;BME280;58763;47.982;11.516;2022-12-07T15:03:09;93879.13;;;2.72;80.61
71107;BME280;58763;47.982;11.516;2022-12-07T15:05:35;93878.31;;;2.71;80.82
71107;BME280;58763;47.982;11.516;2022-12-07T15:08:01;93883.09;;;2.69;80.52
71107;BME280;58763;47.982;11.516;2022-12-07T15:10:29;93880.16;;;2.71;80.23
71107;BME280;58763;47.982;11.516;2022-12-07T15:13:02;93879.75;;;2.79;80.07
71107;BME280;58763;47.982;11.516;2022-12-07T15:15:51;93877.03;;;2.74;79.68